sensor_id;sensor_type;location;lat;lon;timestamp;pressure;altitude;pressure_sealevel;temperature;humidity
8286;BME280;4181;43.416;24.598;2022-09-09T00:00:41;99804.09;;;21.86;100.00
8286;BME280;4181;43.416;24.598;2022-09-09T00:03:47;99814.50;;;21.97;100.00
8286;BME280;4181;43.416;24.598;2022-09-09T00:06:10;99810.41;;;21.95;100.00
8286;BME280;4181;43.416;24.598;2022-09-09T00:08:58;99824.56;;;21.73;100.00
8286;BME280;4181;43.416;24.598;2022-09-09T00:11:46;99823.94;;;21.59;100.00
8286;BME280;4181;43.416;24.598;2022-09-09T00:14:35;99820.66;;;21.57;100.00
8286;BME280;4181;43.416;24.598;2022-09-09T00:17:26;99819.06;;;21.56;100.00
8286;BME280;4181;43.416;24.598;2022-09-09T00:20:05;99813.84;;;21.54;100.00
8286;BME280;4181;43.416;24.598;2022-09-09T00:22:40;99807.97;;;21.47;100.00
8286;BME280;4181;43.416;24.598;2022-09-09T00:25:12;99804.09;;;21.40;100.00
8286;BME280;4181;43.416;24.598;2022-09-09T00:27:46;99789.06;;;21.41;100.00
8286;BME280;4181;43.416;24.598;2022-09-09T00:30:21;99788.22;;;21.40;100.00
8286;BME280;4181;43.416;24.598;2022-09-09T00:32:54;99781.25;;;21.25;100.00
8286;BME280;4181;43.416;24.598;2022-09-09T00:35:33;99766.03;;;21.31;100.00
8286;BME280;4181;43.416;24.598;2022-09-09T00:38:14;99772.88;;;21.43;100.00
8286;BME280;4181;43.416;24.598;2022-09-09T00:40:52;99768.00;;;21.40;100.00
8286;BME280;4181;43.416;24.598;2022-09-09T00:43:33;99767.66;;;21.41;100.00
8286;BME280;4181;43.416;24.598;2022-09-09T00:49:09;99758.81;;;21.48;100.00
8286;BME280;4181;43.416;24.598;2022-09-09T00:51:44;99758.16;;;21.51;100.00
8286;BME280;4181;43.416;24.598;2022-09-09T00:57:26;99750.50;;;21.48;100.00
8286;BME280;4181;43.416;24.598;2022-09-09T01:03:06;99772.91;;;21.34;100.00
8286;BME280;4181;43.416;24.598;2022-09-09T01:06:31;99763.28;;;21.31;100.00
8286;BME280;4181;43.416;24.598;2022-09-09T01:11:26;99765.81;;;21.54;100.00
8286;BME280;4181;43.416;24.598;2022-09-09T01:14:11;99779.16;;;21.77;100.00
8286;BME280;4181;43.416;24.598;2022-09-09T01:16:40;99771.13;;;21.76;100.00
8286;BME280;4181;43.416;24.598;2022-09-09T01:19:10;99761.13;;;21.83;100.00
8286;BME280;4181;43.416;24.598;2022-09-09T01:21:56;99773.31;;;21.99;100.00
8286;BME280;4181;43.416;24.598;2022-09-09T01:24:40;99778.25;;;21.94;100.00
8286;BME280;4181;43.416;24.598;2022-09-09T01:27:08;99779.56;;;21.96;100.00
8286;BME280;4181;43.416;24.598;2022-09-09T01:29:35;99786.25;;;21.95;100.00
8286;BME280;4181;43.416;24.598;2022-09-09T01:32:37;99801.91;;;22.00;100.00
8286;BME280;4181;43.416;24.598;2022-09-09T01:34:50;99809.53;;;22.11;100.00
8286;BME280;4181;43.416;24.598;2022-09-09T01:37:16;99795.97;;;22.10;100.00
8286;BME280;4181;43.416;24.598;2022-09-09T01:39:43;99787.56;;;22.18;100.00
8286;BME280;4181;43.416;24.598;2022-09-09T01:42:12;99786.94;;;22.21;100.00
8286;BME280;4181;43.416;24.598;2022-09-09T01:44:39;99788.78;;;22.09;100.00
8286;BME280;4181;43.416;24.598;2022-09-09T01:47:05;99791.47;;;21.97;100.00
8286;BME280;4181;43.416;24.598;2022-09-09T01:49:32;99776.81;;;21.88;100.00
8286;BME280;4181;43.416;24.598;2022-09-09T01:51:58;99778.63;;;21.84;100.00
8286;BME280;4181;43.416;24.598;2022-09-09T01:54:27;99775.84;;;21.84;100.00
8286;BME280;4181;43.416;24.598;2022-09-09T01:57:09;99781.59;;;21.79;100.00
8286;BME280;4181;43.416;24.598;2022-09-09T02:02:36;99790.25;;;21.69;100.00
8286;BME280;4181;43.416;24.598;2022-09-09T02:07:49;99788.34;;;21.61;100.00
8286;BME280;4181;43.416;24.598;2022-09-09T02:10:31;99777.91;;;21.58;100.00
8286;BME280;4181;43.416;24.598;2022-09-09T02:13:05;99778.69;;;21.58;100.00
8286;BME280;4181;43.416;24.598;2022-09-09T02:18:12;99779.53;;;21.50;100.00
8286;BME280;4181;43.416;24.598;2022-09-09T02:20:41;99775.81;;;21.46;100.00
8286;BME280;4181;43.416;24.598;2022-09-09T02:23:09;99777.78;;;21.46;100.00
8286;BME280;4181;43.416;24.598;2022-09-09T02:25:36;99769.31;;;21.33;100.00
8286;BME280;4181;43.416;24.598;2022-09-09T02:28:05;99757.09;;;21.34;100.00
8286;BME280;4181;43.416;24.598;2022-09-09T02:30:33;99755.63;;;21.28;100.00
8286;BME280;4181;43.416;24.598;2022-09-09T02:33:02;99764.91;;;21.32;100.00
8286;BME280;4181;43.416;24.598;2022-09-09T02:35:30;99757.09;;;21.26;100.00
8286;BME280;4181;43.416;24.598;2022-09-09T02:38:01;99757.25;;;21.29;100.00
8286;BME280;4181;43.416;24.598;2022-09-09T02:40:29;99764.97;;;21.15;100.00
8286;BME280;4181;43.416;24.598;2022-09-09T02:42:55;99768.75;;;21.02;100.00
8286;BME280;4181;43.416;24.598;2022-09-09T02:45:26;99758.31;;;20.99;100.00
8286;BME280;4181;43.416;24.598;2022-09-09T02:50:39;99756.19;;;20.88;100.00
8286;BME280;4181;43.416;24.598;2022-09-09T02:53:19;99750.97;;;20.69;100.00
8286;BME280;4181;43.416;24.598;2022-09-09T02:56:00;99719.00;;;20.63;100.00
8286;BME280;4181;43.416;24.598;2022-09-09T02:58:29;99711.34;;;20.60;100.00
8286;BME280;4181;43.416;24.598;2022-09-09T03:00:55;99713.16;;;20.56;100.00
8286;BME280;4181;43.416;24.598;2022-09-09T03:03:23;99696.53;;;20.39;100.00
8286;BME280;4181;43.416;24.598;2022-09-09T03:05:48;99688.38;;;20.43;100.00
8286;BME280;4181;43.416;24.598;2022-09-09T03:08:15;99678.25;;;20.47;100.00
8286;BME280;4181;43.416;24.598;2022-09-09T03:10:40;99673.19;;;20.32;100.00
8286;BME280;4181;43.416;24.598;2022-09-09T03:13:06;99685.09;;;20.32;100.00
8286;BME280;4181;43.416;24.598;2022-09-09T03:15:32;99678.91;;;20.35;100.00
8286;BME280;4181;43.416;24.598;2022-09-09T03:17:58;99685.59;;;20.43;100.00
8286;BME280;4181;43.416;24.598;2022-09-09T03:20:25;99684.13;;;20.45;100.00
8286;BME280;4181;43.416;24.598;2022-09-09T03:22:54;99693.91;;;20.51;100.00
8286;BME280;4181;43.416;24.598;2022-09-09T03:25:20;99678.41;;;20.50;100.00
8286;BME280;4181;43.416;24.598;2022-09-09T03:27:48;99674.19;;;20.27;100.00
8286;BME280;4181;43.416;24.598;2022-09-09T03:30:15;99682.84;;;20.34;100.00
8286;BME280;4181;43.416;24.598;2022-09-09T03:32:43;99666.88;;;20.23;100.00
8286;BME280;4181;43.416;24.598;2022-09-09T03:35:09;99665.00;;;20.09;100.00
8286;BME280;4181;43.416;24.598;2022-09-09T03:37:35;99668.44;;;19.98;100.00
8286;BME280;4181;43.416;24.598;2022-09-09T03:40:00;99665.19;;;19.96;100.00
8286;BME280;4181;43.416;24.598;2022-09-09T03:42:26;99667.63;;;19.97;100.00
8286;BME280;4181;43.416;24.598;2022-09-09T03:44:52;99659.47;;;19.92;100.00
8286;BME280;4181;43.416;24.598;2022-09-09T03:47:19;99653.97;;;20.01;100.00
8286;BME280;4181;43.416;24.598;2022-09-09T03:49:45;99665.84;;;20.10;100.00
8286;BME280;4181;43.416;24.598;2022-09-09T03:52:11;99667.50;;;20.20;100.00
8286;BME280;4181;43.416;24.598;2022-09-09T03:54:36;99679.41;;;20.20;100.00
8286;BME280;4181;43.416;24.598;2022-09-09T03:57:03;99676.97;;;20.19;100.00
8286;BME280;4181;43.416;24.598;2022-09-09T03:59:29;99674.03;;;20.15;100.00
8286;BME280;4181;43.416;24.598;2022-09-09T04:01:55;99660.16;;;20.24;100.00
8286;BME280;4181;43.416;24.598;2022-09-09T04:04:22;99674.19;;;20.19;100.00
8286;BME280;4181;43.416;24.598;2022-09-09T04:06:47;99666.38;;;20.21;100.00
8286;BME280;4181;43.416;24.598;2022-09-09T04:09:16;99667.03;;;20.18;100.00
8286;BME280;4181;43.416;24.598;2022-09-09T04:11:41;99648.75;;;20.25;100.00
8286;BME280;4181;43.416;24.598;2022-09-09T04:14:07;99645.16;;;20.50;100.00
8286;BME280;4181;43.416;24.598;2022-09-09T04:16:33;99644.13;;;20.80;100.00
8286;BME280;4181;43.416;24.598;2022-09-09T04:18:59;99650.75;;;20.96;100.00
8286;BME280;4181;43.416;24.598;2022-09-09T04:21:25;99669.00;;;21.14;100.00
8286;BME280;4181;43.416;24.598;2022-09-09T04:23:51;99683.28;;;21.33;100.00
8286;BME280;4181;43.416;24.598;2022-09-09T04:26:17;99680.63;;;21.46;100.00
8286;BME280;4181;43.416;24.598;2022-09-09T04:28:42;99691.84;;;21.58;100.00
8286;BME280;4181;43.416;24.598;2022-09-09T04:31:14;99690.09;;;21.74;100.00
8286;BME280;4181;43.416;24.598;2022-09-09T04:33:40;99696.81;;;21.73;100.00
8286;BME280;4181;43.416;24.598;2022-09-09T04:36:06;99721.06;;;21.93;100.00
8286;BME280;4181;43.416;24.598;2022-09-09T04:38:32;99735.13;;;22.17;100.00
8286;BME280;4181;43.416;24.598;2022-09-09T04:40:57;99742.47;;;22.42;100.00
8286;BME280;4181;43.416;24.598;2022-09-09T04:43:23;99758.00;;;22.64;100.00
8286;BME280;4181;43.416;24.598;2022-09-09T04:45:51;99759.13;;;23.04;100.00
8286;BME280;4181;43.416;24.598;2022-09-09T04:48:17;99756.50;;;23.19;100.00
8286;BME280;4181;43.416;24.598;2022-09-09T04:50:43;99750.78;;;23.36;100.00
8286;BME280;4181;43.416;24.598;2022-09-09T04:53:08;99737.69;;;23.49;100.00
8286;BME280;4181;43.416;24.598;2022-09-09T04:55:34;99753.00;;;23.67;100.00
8286;BME280;4181;43.416;24.598;2022-09-09T04:58:07;99760.56;;;23.91;100.00
8286;BME280;4181;43.416;24.598;2022-09-09T05:00:34;99774.19;;;24.04;100.00
8286;BME280;4181;43.416;24.598;2022-09-09T05:03:06;99783.13;;;24.22;100.00
8286;BME280;4181;43.416;24.598;2022-09-09T05:05:34;99781.03;;;24.31;100.00
8286;BME280;4181;43.416;24.598;2022-09-09T05:08:07;99777.63;;;24.49;100.00
8286;BME280;4181;43.416;24.598;2022-09-09T05:10:36;99781.44;;;24.69;100.00
8286;BME280;4181;43.416;24.598;2022-09-09T05:13:02;99784.97;;;24.93;100.00
8286;BME280;4181;43.416;24.598;2022-09-09T05:15:29;99791.50;;;25.13;100.00
8286;BME280;4181;43.416;24.598;2022-09-09T05:18:02;99798.81;;;25.18;100.00
8286;BME280;4181;43.416;24.598;2022-09-09T05:20:30;99795.88;;;25.26;100.00
8286;BME280;4181;43.416;24.598;2022-09-09T05:22:56;99796.78;;;25.30;100.00
8286;BME280;4181;43.416;24.598;2022-09-09T05:25:24;99798.84;;;25.45;100.00
8286;BME280;4181;43.416;24.598;2022-09-09T05:27:58;99804.41;;;25.45;100.00
8286;BME280;4181;43.416;24.598;2022-09-09T05:30:24;99793.78;;;25.66;100.00
8286;BME280;4181;43.416;24.598;2022-09-09T05:32:51;99795.97;;;25.88;100.00
8286;BME280;4181;43.416;24.598;2022-09-09T05:35:17;99801.66;;;26.07;100.00
8286;BME280;4181;43.416;24.598;2022-09-09T05:37:44;99808.72;;;26.17;100.00
8286;BME280;4181;43.416;24.598;2022-09-09T05:40:11;99829.63;;;26.23;100.00
8286;BME280;4181;43.416;24.598;2022-09-09T05:42:37;99830.75;;;26.53;100.00
8286;BME280;4181;43.416;24.598;2022-09-09T05:45:04;99823.19;;;26.88;100.00
8286;BME280;4181;43.416;24.598;2022-09-09T05:47:30;99831.06;;;27.21;100.00
8286;BME280;4181;43.416;24.598;2022-09-09T05:49:55;99845.41;;;27.35;100.00
8286;BME280;4181;43.416;24.598;2022-09-09T05:52:21;99852.69;;;27.39;100.00
8286;BME280;4181;43.416;24.598;2022-09-09T05:54:47;99844.66;;;27.38;100.00
8286;BME280;4181;43.416;24.598;2022-09-09T05:57:14;99827.81;;;27.57;100.00
8286;BME280;4181;43.416;24.598;2022-09-09T05:59:40;99834.44;;;27.68;100.00
8286;BME280;4181;43.416;24.598;2022-09-09T06:02:05;99839.56;;;27.85;100.00
8286;BME280;4181;43.416;24.598;2022-09-09T06:04:31;99825.72;;;27.96;100.00
8286;BME280;4181;43.416;24.598;2022-09-09T06:06:56;99844.41;;;28.07;100.00
8286;BME280;4181;43.416;24.598;2022-09-09T06:09:21;99851.09;;;28.25;100.00
8286;BME280;4181;43.416;24.598;2022-09-09T06:11:48;99843.66;;;28.36;100.00
8286;BME280;4181;43.416;24.598;2022-09-09T06:14:13;99853.47;;;28.23;100.00
8286;BME280;4181;43.416;24.598;2022-09-09T10:07:21;99795.31;;;34.23;100.00
8286;BME280;4181;43.416;24.598;2022-09-09T10:09:53;99787.03;;;34.50;100.00
8286;BME280;4181;43.416;24.598;2022-09-09T10:12:31;99802.75;;;34.55;100.00
8286;BME280;4181;43.416;24.598;2022-09-09T10:20:56;99785.47;;;35.16;100.00
8286;BME280;4181;43.416;24.598;2022-09-09T10:31:38;99801.25;;;34.80;100.00
8286;BME280;4181;43.416;24.598;2022-09-09T10:37:05;99793.38;;;34.61;100.00
8286;BME280;4181;43.416;24.598;2022-09-09T10:39:38;99801.09;;;34.57;100.00
8286;BME280;4181;43.416;24.598;2022-09-09T10:42:09;99802.41;;;34.49;100.00
8286;BME280;4181;43.416;24.598;2022-09-09T10:56:04;99808.69;;;34.23;100.00
8286;BME280;4181;43.416;24.598;2022-09-09T11:01:39;99805.75;;;33.82;100.00
8286;BME280;4181;43.416;24.598;2022-09-09T11:04:21;99805.25;;;34.01;100.00
8286;BME280;4181;43.416;24.598;2022-09-09T11:06:54;99805.31;;;33.87;100.00
8286;BME280;4181;43.416;24.598;2022-09-09T11:09:26;99806.13;;;33.88;100.00
8286;BME280;4181;43.416;24.598;2022-09-09T11:11:58;99811.00;;;33.84;100.00
8286;BME280;4181;43.416;24.598;2022-09-09T11:14:52;99814.31;;;33.72;100.00
8286;BME280;4181;43.416;24.598;2022-09-09T11:17:23;99817.53;;;33.74;100.00
8286;BME280;4181;43.416;24.598;2022-09-09T11:19:50;99813.16;;;33.66;100.00
8286;BME280;4181;43.416;24.598;2022-09-09T11:22:34;99801.44;;;33.64;100.00
8286;BME280;4181;43.416;24.598;2022-09-09T11:25:14;99802.25;;;33.61;100.00
8286;BME280;4181;43.416;24.598;2022-09-09T11:30:25;99786.59;;;33.46;100.00
8286;BME280;4181;43.416;24.598;2022-09-09T11:38:27;99806.44;;;33.31;100.00
8286;BME280;4181;43.416;24.598;2022-09-09T11:40:58;99793.50;;;33.30;100.00
8286;BME280;4181;43.416;24.598;2022-09-09T11:43:56;99803.56;;;33.35;100.00
8286;BME280;4181;43.416;24.598;2022-09-09T11:46:34;99793.47;;;33.41;100.00
8286;BME280;4181;43.416;24.598;2022-09-09T11:49:02;99791.41;;;33.49;100.00
8286;BME280;4181;43.416;24.598;2022-09-09T11:51:30;99792.66;;;33.41;100.00
8286;BME280;4181;43.416;24.598;2022-09-09T11:54:02;99797.91;;;33.38;100.00
8286;BME280;4181;43.416;24.598;2022-09-09T11:56:46;99788.66;;;33.42;100.00
8286;BME280;4181;43.416;24.598;2022-09-09T11:59:30;99793.88;;;33.40;100.00
8286;BME280;4181;43.416;24.598;2022-09-09T12:02:01;99785.03;;;33.27;100.00
8286;BME280;4181;43.416;24.598;2022-09-09T12:04:55;99788.31;;;33.18;100.00
8286;BME280;4181;43.416;24.598;2022-09-09T12:07:51;99802.94;;;32.99;100.00
8286;BME280;4181;43.416;24.598;2022-09-09T12:10:33;99795.31;;;32.79;100.00
8286;BME280;4181;43.416;24.598;2022-09-09T12:13:19;99794.53;;;32.75;100.00
8286;BME280;4181;43.416;24.598;2022-09-09T12:15:54;99786.47;;;32.70;100.00
8286;BME280;4181;43.416;24.598;2022-09-09T12:18:39;99772.34;;;32.66;100.00
8286;BME280;4181;43.416;24.598;2022-09-09T12:21:31;99775.13;;;32.73;100.00
8286;BME280;4181;43.416;24.598;2022-09-09T12:24:05;99767.88;;;32.79;100.00
8286;BME280;4181;43.416;24.598;2022-09-09T12:26:43;99761.41;;;32.75;100.00
8286;BME280;4181;43.416;24.598;2022-09-09T12:32:06;99750.81;;;33.07;100.00
8286;BME280;4181;43.416;24.598;2022-09-09T12:37:42;99740.72;;;33.06;100.00
8286;BME280;4181;43.416;24.598;2022-09-09T12:40:25;99746.00;;;32.87;100.00
8286;BME280;4181;43.416;24.598;2022-09-09T12:42:51;99746.09;;;32.73;100.00
8286;BME280;4181;43.416;24.598;2022-09-09T12:45:18;99750.53;;;32.70;100.00
8286;BME280;4181;43.416;24.598;2022-09-09T12:48:03;99750.53;;;32.63;100.00
8286;BME280;4181;43.416;24.598;2022-09-09T12:50:33;99744.13;;;32.56;100.00
8286;BME280;4181;43.416;24.598;2022-09-09T12:53:25;99744.53;;;32.47;100.00
8286;BME280;4181;43.416;24.598;2022-09-09T12:55:56;99756.66;;;32.51;100.00
8286;BME280;4181;43.416;24.598;2022-09-09T12:58:22;99749.81;;;32.31;100.00
8286;BME280;4181;43.416;24.598;2022-09-09T13:00:50;99738.94;;;32.15;100.00
8286;BME280;4181;43.416;24.598;2022-09-09T13:03:19;99744.16;;;32.13;100.00
8286;BME280;4181;43.416;24.598;2022-09-09T13:05:46;99756.69;;;32.20;100.00
8286;BME280;4181;43.416;24.598;2022-09-09T13:08:13;99769.56;;;32.21;100.00
8286;BME280;4181;43.416;24.598;2022-09-09T13:11:00;99772.00;;;32.01;100.00
8286;BME280;4181;43.416;24.598;2022-09-09T13:16:00;99754.66;;;31.99;100.00
8286;BME280;4181;43.416;24.598;2022-09-09T13:18:29;99749.44;;;32.01;100.00
8286;BME280;4181;43.416;24.598;2022-09-09T13:20:56;99751.84;;;32.06;100.00
8286;BME280;4181;43.416;24.598;2022-09-09T13:23:28;99747.78;;;31.96;100.00
8286;BME280;4181;43.416;24.598;2022-09-09T13:25:56;99757.84;;;31.83;100.00
8286;BME280;4181;43.416;24.598;2022-09-09T13:28:25;99759.44;;;31.63;100.00
8286;BME280;4181;43.416;24.598;2022-09-09T13:31:02;99759.44;;;31.63;100.00
8286;BME280;4181;43.416;24.598;2022-09-09T13:33:36;99757.41;;;31.53;100.00
8286;BME280;4181;43.416;24.598;2022-09-09T13:36:09;99764.69;;;31.51;100.00
8286;BME280;4181;43.416;24.598;2022-09-09T13:38:56;99760.22;;;31.39;100.00
8286;BME280;4181;43.416;24.598;2022-09-09T13:41:24;99762.19;;;31.32;100.00
8286;BME280;4181;43.416;24.598;2022-09-09T13:43:51;99746.13;;;31.36;100.00
8286;BME280;4181;43.416;24.598;2022-09-09T13:46:28;99755.78;;;31.42;100.00
8286;BME280;4181;43.416;24.598;2022-09-09T13:49:00;99749.34;;;31.34;100.00
8286;BME280;4181;43.416;24.598;2022-09-09T13:51:33;99752.56;;;31.43;100.00
8286;BME280;4181;43.416;24.598;2022-09-09T13:54:00;99746.13;;;31.43;100.00
8286;BME280;4181;43.416;24.598;2022-09-09T13:56:26;99741.69;;;31.42;100.00
8286;BME280;4181;43.416;24.598;2022-09-09T13:58:52;99728.41;;;31.39;100.00
8286;BME280;4181;43.416;24.598;2022-09-09T14:01:17;99725.16;;;31.40;100.00
8286;BME280;4181;43.416;24.598;2022-09-09T14:03:43;99726.00;;;31.41;100.00
8286;BME280;4181;43.416;24.598;2022-09-09T14:06:10;99736.44;;;31.40;100.00
8286;BME280;4181;43.416;24.598;2022-09-09T14:08:36;99721.06;;;31.17;100.00
8286;BME280;4181;43.416;24.598;2022-09-09T14:11:03;99740.84;;;31.31;100.00
8286;BME280;4181;43.416;24.598;2022-09-09T14:13:29;99714.63;;;31.20;100.00
8286;BME280;4181;43.416;24.598;2022-09-09T14:15:55;99730.75;;;31.30;100.00
8286;BME280;4181;43.416;24.598;2022-09-09T14:18:20;99717.81;;;31.15;100.00
8286;BME280;4181;43.416;24.598;2022-09-09T14:20:47;99735.53;;;31.12;100.00
8286;BME280;4181;43.416;24.598;2022-09-09T14:23:13;99729.13;;;31.11;100.00
8286;BME280;4181;43.416;24.598;2022-09-09T14:25:41;99730.69;;;31.05;100.00
8286;BME280;4181;43.416;24.598;2022-09-09T14:28:12;99741.97;;;31.09;100.00
8286;BME280;4181;43.416;24.598;2022-09-09T14:30:39;99749.63;;;31.08;100.00
8286;BME280;4181;43.416;24.598;2022-09-09T14:33:06;99749.59;;;30.98;100.00
8286;BME280;4181;43.416;24.598;2022-09-09T14:35:32;99744.34;;;30.99;100.00
8286;BME280;4181;43.416;24.598;2022-09-09T14:37:58;99729.44;;;30.88;100.00
8286;BME280;4181;43.416;24.598;2022-09-09T14:40:26;99740.69;;;30.88;100.00
8286;BME280;4181;43.416;24.598;2022-09-09T14:42:52;99748.34;;;30.84;100.00
8286;BME280;4181;43.416;24.598;2022-09-09T14:45:18;99759.13;;;30.75;100.00
8286;BME280;4181;43.416;24.598;2022-09-09T14:47:43;99743.38;;;30.64;100.00
8286;BME280;4181;43.416;24.598;2022-09-09T14:50:10;99759.06;;;30.65;100.00
8286;BME280;4181;43.416;24.598;2022-09-09T14:52:37;99749.00;;;30.60;100.00
8286;BME280;4181;43.416;24.598;2022-09-09T14:55:03;99753.31;;;30.44;100.00
8286;BME280;4181;43.416;24.598;2022-09-09T14:57:29;99761.41;;;30.49;100.00
8286;BME280;4181;43.416;24.598;2022-09-09T14:59:55;99757.78;;;30.48;100.00
8286;BME280;4181;43.416;24.598;2022-09-09T15:02:21;99748.13;;;30.49;100.00
8286;BME280;4181;43.416;24.598;2022-09-09T15:04:47;99751.75;;;30.53;100.00
8286;BME280;4181;43.416;24.598;2022-09-09T15:07:13;99746.53;;;30.52;100.00
8286;BME280;4181;43.416;24.598;2022-09-09T15:09:38;99751.38;;;30.55;100.00
8286;BME280;4181;43.416;24.598;2022-09-09T15:12:04;99751.00;;;30.63;100.00
8286;BME280;4181;43.416;24.598;2022-09-09T15:14:29;99735.38;;;30.69;100.00
8286;BME280;4181;43.416;24.598;2022-09-09T15:16:56;99734.16;;;30.70;100.00
8286;BME280;4181;43.416;24.598;2022-09-09T15:19:21;99725.31;;;30.72;100.00
8286;BME280;4181;43.416;24.598;2022-09-09T15:21:47;99736.25;;;30.80;100.00
8286;BME280;4181;43.416;24.598;2022-09-09T15:24:12;99731.03;;;30.82;100.00
8286;BME280;4181;43.416;24.598;2022-09-09T15:26:38;99736.19;;;30.73;100.00
8286;BME280;4181;43.416;24.598;2022-09-09T15:29:05;99730.50;;;30.66;100.00
8286;BME280;4181;43.416;24.598;2022-09-09T15:31:31;99741.00;;;30.69;100.00
8286;BME280;4181;43.416;24.598;2022-09-09T15:33:59;99743.41;;;30.67;100.00
8286;BME280;4181;43.416;24.598;2022-09-09T15:36:44;99736.50;;;30.54;100.00
8286;BME280;4181;43.416;24.598;2022-09-09T15:39:13;99737.66;;;30.50;100.00
8286;BME280;4181;43.416;24.598;2022-09-09T15:41:44;99735.66;;;30.50;100.00
8286;BME280;4181;43.416;24.598;2022-09-09T15:44:10;99732.00;;;30.46;100.00
8286;BME280;4181;43.416;24.598;2022-09-09T15:46:49;99717.09;;;30.39;100.00
8286;BME280;4181;43.416;24.598;2022-09-09T15:49:20;99727.63;;;30.49;100.00
8286;BME280;4181;43.416;24.598;2022-09-09T15:51:59;99743.22;;;30.36;100.00
8286;BME280;4181;43.416;24.598;2022-09-09T15:54:31;99731.84;;;30.22;100.00
8286;BME280;4181;43.416;24.598;2022-09-09T15:56:59;99745.88;;;30.18;100.00
8286;BME280;4181;43.416;24.598;2022-09-09T15:59:27;99743.84;;;30.15;100.00
8286;BME280;4181;43.416;24.598;2022-09-09T16:01:53;99748.59;;;30.04;100.00
8286;BME280;4181;43.416;24.598;2022-09-09T16:04:20;99738.91;;;29.98;100.00
8286;BME280;4181;43.416;24.598;2022-09-09T16:07:00;99747.28;;;29.91;100.00
8286;BME280;4181;43.416;24.598;2022-09-09T16:09:27;99749.97;;;29.77;100.00
8286;BME280;4181;43.416;24.598;2022-09-09T16:11:52;99740.31;;;29.74;100.00
8286;BME280;4181;43.416;24.598;2022-09-09T16:14:21;99733.81;;;29.67;100.00
8286;BME280;4181;43.416;24.598;2022-09-09T16:16:47;99736.09;;;29.58;100.00
8286;BME280;4181;43.416;24.598;2022-09-09T16:19:13;99732.16;;;29.62;100.00
8286;BME280;4181;43.416;24.598;2022-09-09T16:21:44;99742.16;;;29.60;100.00
8286;BME280;4181;43.416;24.598;2022-09-09T16:24:13;99740.13;;;29.57;100.00
8286;BME280;4181;43.416;24.598;2022-09-09T16:26:45;99745.69;;;29.50;100.00
8286;BME280;4181;43.416;24.598;2022-09-09T16:29:12;99747.66;;;29.49;100.00
8286;BME280;4181;43.416;24.598;2022-09-09T16:31:39;99758.47;;;29.44;100.00
8286;BME280;4181;43.416;24.598;2022-09-09T16:34:07;99754.38;;;29.38;100.00
8286;BME280;4181;43.416;24.598;2022-09-09T16:36:35;99740.63;;;29.26;100.00
8286;BME280;4181;43.416;24.598;2022-09-09T16:39:03;99751.88;;;29.26;100.00
8286;BME280;4181;43.416;24.598;2022-09-09T16:41:39;99742.97;;;29.20;100.00
8286;BME280;4181;43.416;24.598;2022-09-09T16:44:07;99740.50;;;29.15;100.00
8286;BME280;4181;43.416;24.598;2022-09-09T16:46:36;99741.28;;;29.12;100.00
8286;BME280;4181;43.416;24.598;2022-09-09T16:49:04;99736.31;;;29.02;100.00
8286;BME280;4181;43.416;24.598;2022-09-09T16:51:39;99739.03;;;28.95;100.00
8286;BME280;4181;43.416;24.598;2022-09-09T16:54:07;99742.63;;;28.92;100.00
8286;BME280;4181;43.416;24.598;2022-09-09T16:56:34;99730.31;;;28.71;100.00
8286;BME280;4181;43.416;24.598;2022-09-09T16:59:13;99729.28;;;28.56;100.00
8286;BME280;4181;43.416;24.598;2022-09-09T17:01:40;99729.19;;;28.49;100.00
8286;BME280;4181;43.416;24.598;2022-09-09T17:04:09;99733.94;;;28.45;100.00
8286;BME280;4181;43.416;24.598;2022-09-09T17:06:35;99733.78;;;28.34;100.00
8286;BME280;4181;43.416;24.598;2022-09-09T17:09:07;99731.75;;;28.05;100.00
8286;BME280;4181;43.416;24.598;2022-09-09T17:11:33;99725.75;;;27.84;100.00
8286;BME280;4181;43.416;24.598;2022-09-09T17:14:00;99723.69;;;27.55;100.00
8286;BME280;4181;43.416;24.598;2022-09-09T17:16:28;99714.47;;;27.32;100.00
8286;BME280;4181;43.416;24.598;2022-09-09T17:18:54;99701.19;;;27.10;100.00
8286;BME280;4181;43.416;24.598;2022-09-09T17:21:22;99716.44;;;27.12;100.00
8286;BME280;4181;43.416;24.598;2022-09-09T17:23:49;99723.25;;;26.92;100.00
8286;BME280;4181;43.416;24.598;2022-09-09T17:26:17;99724.06;;;26.93;100.00
8286;BME280;4181;43.416;24.598;2022-09-09T17:28:43;99708.25;;;26.81;100.00
8286;BME280;4181;43.416;24.598;2022-09-09T17:31:13;99708.31;;;26.66;100.00
8286;BME280;4181;43.416;24.598;2022-09-09T17:33:43;99711.25;;;26.54;100.00
8286;BME280;4181;43.416;24.598;2022-09-09T17:36:33;99719.94;;;26.49;100.00
8286;BME280;4181;43.416;24.598;2022-09-09T17:38:58;99714.81;;;26.35;100.00
8286;BME280;4181;43.416;24.598;2022-09-09T17:41:27;99728.66;;;26.47;100.00
8286;BME280;4181;43.416;24.598;2022-09-09T17:43:53;99709.97;;;26.51;100.00
8286;BME280;4181;43.416;24.598;2022-09-09T17:48:45;99736.13;;;26.59;100.00
8286;BME280;4181;43.416;24.598;2022-09-09T17:51:13;99719.72;;;26.23;100.00
8286;BME280;4181;43.416;24.598;2022-09-09T17:53:43;99716.63;;;26.08;100.00
8286;BME280;4181;43.416;24.598;2022-09-09T17:56:12;99742.38;;;26.17;100.00
8286;BME280;4181;43.416;24.598;2022-09-09T17:58:41;99726.19;;;25.92;100.00
8286;BME280;4181;43.416;24.598;2022-09-09T18:01:12;99730.59;;;25.77;100.00
8286;BME280;4181;43.416;24.598;2022-09-09T18:03:39;99727.66;;;25.70;100.00
8286;BME280;4181;43.416;24.598;2022-09-09T18:06:07;99767.84;;;25.81;100.00
8286;BME280;4181;43.416;24.598;2022-09-09T18:08:34;99751.63;;;25.71;100.00
8286;BME280;4181;43.416;24.598;2022-09-09T18:11:09;99747.91;;;25.67;100.00
8286;BME280;4181;43.416;24.598;2022-09-09T18:13:35;99754.84;;;25.73;100.00
8286;BME280;4181;43.416;24.598;2022-09-09T18:16:01;99747.47;;;25.65;100.00
8286;BME280;4181;43.416;24.598;2022-09-09T18:18:30;99744.13;;;25.44;100.00
8286;BME280;4181;43.416;24.598;2022-09-09T18:20:58;99746.44;;;25.42;100.00